sensor_id;sensor_type;location;lat;lon;timestamp;P1;durP1;ratioP1;P2;durP2;ratioP2
47349;SDS011;33088;51.982;5.872;2022-08-19T00:00:12;6.68;;;5.90;;
47349;SDS011;33088;51.982;5.872;2022-08-19T00:02:39;7.88;;;7.15;;
47349;SDS011;33088;51.982;5.872;2022-08-19T00:05:05;7.13;;;5.85;;
47349;SDS011;33088;51.982;5.872;2022-08-19T00:07:31;8.05;;;6.80;;
47349;SDS011;33088;51.982;5.872;2022-08-19T00:09:57;9.45;;;7.15;;
47349;SDS011;33088;51.982;5.872;2022-08-19T00:12:23;8.75;;;7.50;;
47349;SDS011;33088;51.982;5.872;2022-08-19T00:14:48;9.13;;;7.20;;
47349;SDS011;33088;51.982;5.872;2022-08-19T00:17:17;8.73;;;7.90;;
47349;SDS011;33088;51.982;5.872;2022-08-19T00:19:42;8.93;;;7.90;;
47349;SDS011;33088;51.982;5.872;2022-08-19T00:22:08;9.32;;;7.65;;
47349;SDS011;33088;51.982;5.872;2022-08-19T00:24:34;8.45;;;7.68;;
47349;SDS011;33088;51.982;5.872;2022-08-19T00:27:00;8.88;;;7.97;;
47349;SDS011;33088;51.982;5.872;2022-08-19T00:29:27;10.63;;;7.95;;
47349;SDS011;33088;51.982;5.872;2022-08-19T00:31:53;9.88;;;8.90;;
47349;SDS011;33088;51.982;5.872;2022-08-19T00:34:21;9.25;;;8.35;;
47349;SDS011;33088;51.982;5.872;2022-08-19T00:36:48;10.73;;;8.77;;
47349;SDS011;33088;51.982;5.872;2022-08-19T00:39:14;9.15;;;7.18;;
47349;SDS011;33088;51.982;5.872;2022-08-19T00:41:41;8.52;;;7.65;;
47349;SDS011;33088;51.982;5.872;2022-08-19T00:44:09;8.45;;;6.85;;
47349;SDS011;33088;51.982;5.872;2022-08-19T00:46:35;8.27;;;6.95;;
47349;SDS011;33088;51.982;5.872;2022-08-19T00:49:06;11.23;;;7.43;;
47349;SDS011;33088;51.982;5.872;2022-08-19T00:51:40;10.35;;;7.10;;
47349;SDS011;33088;51.982;5.872;2022-08-19T00:54:07;9.52;;;8.18;;
47349;SDS011;33088;51.982;5.872;2022-08-19T00:56:34;8.70;;;6.78;;
47349;SDS011;33088;51.982;5.872;2022-08-19T00:59:01;8.07;;;7.28;;
47349;SDS011;33088;51.982;5.872;2022-08-19T01:01:33;10.25;;;8.10;;
47349;SDS011;33088;51.982;5.872;2022-08-19T01:04:00;9.27;;;6.90;;
47349;SDS011;33088;51.982;5.872;2022-08-19T01:06:26;8.32;;;7.50;;
47349;SDS011;33088;51.982;5.872;2022-08-19T01:08:53;10.23;;;8.77;;
47349;SDS011;33088;51.982;5.872;2022-08-19T01:11:19;10.10;;;9.02;;
47349;SDS011;33088;51.982;5.872;2022-08-19T01:13:46;12.38;;;8.63;;
47349;SDS011;33088;51.982;5.872;2022-08-19T01:16:12;12.38;;;9.27;;
47349;SDS011;33088;51.982;5.872;2022-08-19T01:18:39;13.27;;;9.70;;
47349;SDS011;33088;51.982;5.872;2022-08-19T01:21:50;10.93;;;9.32;;
47349;SDS011;33088;51.982;5.872;2022-08-19T01:24:02;13.20;;;9.93;;
47349;SDS011;33088;51.982;5.872;2022-08-19T01:26:29;11.23;;;10.23;;
47349;SDS011;33088;51.982;5.872;2022-08-19T01:28:55;12.55;;;11.25;;
47349;SDS011;33088;51.982;5.872;2022-08-19T01:31:24;13.82;;;12.38;;
47349;SDS011;33088;51.982;5.872;2022-08-19T01:33:51;13.30;;;11.27;;
47349;SDS011;33088;51.982;5.872;2022-08-19T01:36:27;14.52;;;12.95;;
47349;SDS011;33088;51.982;5.872;2022-08-19T01:38:55;12.63;;;11.30;;
47349;SDS011;33088;51.982;5.872;2022-08-19T01:41:23;14.50;;;12.43;;
47349;SDS011;33088;51.982;5.872;2022-08-19T01:43:49;14.25;;;11.75;;
47349;SDS011;33088;51.982;5.872;2022-08-19T01:46:17;13.57;;;10.88;;
47349;SDS011;33088;51.982;5.872;2022-08-19T01:48:43;14.82;;;12.75;;
47349;SDS011;33088;51.982;5.872;2022-08-19T01:51:10;13.32;;;11.93;;
47349;SDS011;33088;51.982;5.872;2022-08-19T01:53:36;15.60;;;13.27;;
47349;SDS011;33088;51.982;5.872;2022-08-19T01:56:03;17.55;;;14.23;;
47349;SDS011;33088;51.982;5.872;2022-08-19T01:58:30;15.23;;;13.15;;
47349;SDS011;33088;51.982;5.872;2022-08-19T02:01:01;14.15;;;11.85;;
47349;SDS011;33088;51.982;5.872;2022-08-19T02:03:27;12.63;;;11.32;;
47349;SDS011;33088;51.982;5.872;2022-08-19T02:05:57;11.55;;;10.35;;
47349;SDS011;33088;51.982;5.872;2022-08-19T02:08:25;17.35;;;11.98;;
47349;SDS011;33088;51.982;5.872;2022-08-19T02:10:52;12.80;;;10.93;;
47349;SDS011;33088;51.982;5.872;2022-08-19T02:13:18;11.70;;;10.48;;
47349;SDS011;33088;51.982;5.872;2022-08-19T02:15:44;14.25;;;12.27;;
47349;SDS011;33088;51.982;5.872;2022-08-19T02:18:10;13.43;;;11.13;;
47349;SDS011;33088;51.982;5.872;2022-08-19T02:20:36;16.25;;;12.25;;
47349;SDS011;33088;51.982;5.872;2022-08-19T02:23:03;15.00;;;11.85;;
47349;SDS011;33088;51.982;5.872;2022-08-19T02:25:29;14.95;;;11.40;;
47349;SDS011;33088;51.982;5.872;2022-08-19T02:27:55;12.18;;;10.90;;
47349;SDS011;33088;51.982;5.872;2022-08-19T02:30:21;11.82;;;10.63;;
47349;SDS011;33088;51.982;5.872;2022-08-19T02:32:46;13.48;;;11.15;;
47349;SDS011;33088;51.982;5.872;2022-08-19T02:35:12;11.02;;;9.98;;
47349;SDS011;33088;51.982;5.872;2022-08-19T02:37:39;11.48;;;10.27;;
47349;SDS011;33088;51.982;5.872;2022-08-19T02:40:24;11.80;;;10.68;;
47349;SDS011;33088;51.982;5.872;2022-08-19T02:42:50;12.05;;;10.85;;
47349;SDS011;33088;51.982;5.872;2022-08-19T02:45:16;16.35;;;11.88;;
47349;SDS011;33088;51.982;5.872;2022-08-19T02:47:42;13.98;;;10.30;;
47349;SDS011;33088;51.982;5.872;2022-08-19T02:50:08;12.50;;;10.77;;
47349;SDS011;33088;51.982;5.872;2022-08-19T02:52:34;11.95;;;10.70;;
47349;SDS011;33088;51.982;5.872;2022-08-19T02:55:00;13.88;;;11.93;;
47349;SDS011;33088;51.982;5.872;2022-08-19T02:57:26;14.45;;;11.07;;
47349;SDS011;33088;51.982;5.872;2022-08-19T02:59:53;12.38;;;11.02;;
47349;SDS011;33088;51.982;5.872;2022-08-19T03:02:19;12.75;;;11.25;;
47349;SDS011;33088;51.982;5.872;2022-08-19T03:04:44;12.32;;;11.02;;
47349;SDS011;33088;51.982;5.872;2022-08-19T03:07:14;11.00;;;9.88;;
47349;SDS011;33088;51.982;5.872;2022-08-19T03:09:40;11.50;;;10.40;;
47349;SDS011;33088;51.982;5.872;2022-08-19T03:12:09;11.50;;;10.25;;
47349;SDS011;33088;51.982;5.872;2022-08-19T03:14:35;13.75;;;10.45;;
47349;SDS011;33088;51.982;5.872;2022-08-19T03:17:02;12.88;;;10.88;;
47349;SDS011;33088;51.982;5.872;2022-08-19T03:19:29;10.80;;;9.70;;
47349;SDS011;33088;51.982;5.872;2022-08-19T03:21:56;14.45;;;10.13;;
47349;SDS011;33088;51.982;5.872;2022-08-19T03:24:23;13.10;;;9.98;;
47349;SDS011;33088;51.982;5.872;2022-08-19T03:26:51;13.38;;;11.98;;
47349;SDS011;33088;51.982;5.872;2022-08-19T03:29:21;14.02;;;10.98;;
47349;SDS011;33088;51.982;5.872;2022-08-19T03:31:48;12.10;;;10.80;;
47349;SDS011;33088;51.982;5.872;2022-08-19T03:34:16;16.30;;;11.32;;
47349;SDS011;33088;51.982;5.872;2022-08-19T03:36:45;12.25;;;10.90;;
47349;SDS011;33088;51.982;5.872;2022-08-19T03:39:12;12.68;;;11.07;;
47349;SDS011;33088;51.982;5.872;2022-08-19T03:41:40;11.88;;;10.25;;
47349;SDS011;33088;51.982;5.872;2022-08-19T03:44:07;11.77;;;10.57;;
47349;SDS011;33088;51.982;5.872;2022-08-19T03:46:33;13.73;;;10.70;;
47349;SDS011;33088;51.982;5.872;2022-08-19T03:49:01;14.50;;;10.50;;
47349;SDS011;33088;51.982;5.872;2022-08-19T03:51:33;12.57;;;11.25;;
47349;SDS011;33088;51.982;5.872;2022-08-19T03:54:03;13.55;;;11.63;;
47349;SDS011;33088;51.982;5.872;2022-08-19T03:56:30;12.00;;;10.80;;
47349;SDS011;33088;51.982;5.872;2022-08-19T03:58:58;14.07;;;11.50;;
47349;SDS011;33088;51.982;5.872;2022-08-19T04:01:25;11.90;;;10.70;;
47349;SDS011;33088;51.982;5.872;2022-08-19T04:03:53;14.95;;;12.38;;
47349;SDS011;33088;51.982;5.872;2022-08-19T04:06:20;13.05;;;11.65;;
47349;SDS011;33088;51.982;5.872;2022-08-19T04:08:55;15.07;;;12.25;;
47349;SDS011;33088;51.982;5.872;2022-08-19T04:11:27;15.07;;;11.95;;
47349;SDS011;33088;51.982;5.872;2022-08-19T04:13:54;14.18;;;11.90;;
47349;SDS011;33088;51.982;5.872;2022-08-19T04:16:21;14.45;;;12.15;;
47349;SDS011;33088;51.982;5.872;2022-08-19T04:18:48;13.30;;;12.00;;
47349;SDS011;33088;51.982;5.872;2022-08-19T04:21:18;12.82;;;11.48;;
47349;SDS011;33088;51.982;5.872;2022-08-19T04:23:49;15.82;;;13.05;;
47349;SDS011;33088;51.982;5.872;2022-08-19T04:26:16;15.50;;;12.50;;
47349;SDS011;33088;51.982;5.872;2022-08-19T04:28:44;17.42;;;12.45;;
47349;SDS011;33088;51.982;5.872;2022-08-19T04:31:17;18.02;;;13.65;;
47349;SDS011;33088;51.982;5.872;2022-08-19T04:33:44;16.35;;;14.60;;
47349;SDS011;33088;51.982;5.872;2022-08-19T04:36:18;16.08;;;14.45;;
47349;SDS011;33088;51.982;5.872;2022-08-19T04:38:46;16.70;;;13.93;;
47349;SDS011;33088;51.982;5.872;2022-08-19T04:41:12;15.63;;;14.02;;
47349;SDS011;33088;51.982;5.872;2022-08-19T04:43:57;16.27;;;14.15;;
47349;SDS011;33088;51.982;5.872;2022-08-19T04:46:23;17.15;;;14.18;;
47349;SDS011;33088;51.982;5.872;2022-08-19T04:48:49;17.75;;;15.20;;
47349;SDS011;33088;51.982;5.872;2022-08-19T04:51:14;16.42;;;14.73;;
47349;SDS011;33088;51.982;5.872;2022-08-19T04:53:41;16.42;;;14.18;;
47349;SDS011;33088;51.982;5.872;2022-08-19T04:56:11;17.10;;;14.75;;
47349;SDS011;33088;51.982;5.872;2022-08-19T04:58:39;18.38;;;14.80;;
47349;SDS011;33088;51.982;5.872;2022-08-19T05:01:08;16.98;;;13.82;;
47349;SDS011;33088;51.982;5.872;2022-08-19T05:03:43;15.80;;;13.68;;
47349;SDS011;33088;51.982;5.872;2022-08-19T05:06:10;17.23;;;14.73;;
47349;SDS011;33088;51.982;5.872;2022-08-19T05:08:38;18.63;;;15.48;;
47349;SDS011;33088;51.982;5.872;2022-08-19T05:13:56;19.30;;;14.77;;
47349;SDS011;33088;51.982;5.872;2022-08-19T05:16:23;18.17;;;15.18;;
47349;SDS011;33088;51.982;5.872;2022-08-19T05:18:50;15.02;;;13.40;;
47349;SDS011;33088;51.982;5.872;2022-08-19T05:21:34;17.45;;;14.40;;
47349;SDS011;33088;51.982;5.872;2022-08-19T05:24:20;14.85;;;13.25;;
47349;SDS011;33088;51.982;5.872;2022-08-19T05:26:47;16.02;;;14.35;;
47349;SDS011;33088;51.982;5.872;2022-08-19T05:29:14;17.98;;;16.02;;
47349;SDS011;33088;51.982;5.872;2022-08-19T05:31:41;17.55;;;14.82;;
47349;SDS011;33088;51.982;5.872;2022-08-19T05:34:07;17.83;;;15.63;;
47349;SDS011;33088;51.982;5.872;2022-08-19T05:36:35;17.15;;;14.35;;
47349;SDS011;33088;51.982;5.872;2022-08-19T05:39:05;17.83;;;14.27;;
47349;SDS011;33088;51.982;5.872;2022-08-19T05:41:32;17.35;;;15.23;;
47349;SDS011;33088;51.982;5.872;2022-08-19T05:44:01;17.30;;;15.48;;
47349;SDS011;33088;51.982;5.872;2022-08-19T05:46:28;20.63;;;16.55;;
47349;SDS011;33088;51.982;5.872;2022-08-19T05:48:54;18.25;;;14.88;;
47349;SDS011;33088;51.982;5.872;2022-08-19T05:51:21;17.25;;;15.52;;
47349;SDS011;33088;51.982;5.872;2022-08-19T05:53:49;18.77;;;14.25;;
47349;SDS011;33088;51.982;5.872;2022-08-19T05:56:15;19.65;;;17.52;;
47349;SDS011;33088;51.982;5.872;2022-08-19T05:58:43;18.73;;;16.83;;
47349;SDS011;33088;51.982;5.872;2022-08-19T06:01:14;18.23;;;15.70;;
47349;SDS011;33088;51.982;5.872;2022-08-19T06:03:42;22.15;;;18.35;;
47349;SDS011;33088;51.982;5.872;2022-08-19T06:06:09;22.58;;;18.60;;
47349;SDS011;33088;51.982;5.872;2022-08-19T06:08:36;19.42;;;17.42;;
47349;SDS011;33088;51.982;5.872;2022-08-19T06:11:17;20.70;;;18.48;;
47349;SDS011;33088;51.982;5.872;2022-08-19T06:13:45;27.33;;;20.35;;
47349;SDS011;33088;51.982;5.872;2022-08-19T06:16:15;20.42;;;17.45;;
47349;SDS011;33088;51.982;5.872;2022-08-19T06:18:48;20.70;;;18.60;;
47349;SDS011;33088;51.982;5.872;2022-08-19T06:21:16;23.02;;;20.55;;
47349;SDS011;33088;51.982;5.872;2022-08-19T06:23:44;19.45;;;17.17;;
47349;SDS011;33088;51.982;5.872;2022-08-19T06:26:11;21.45;;;17.30;;
47349;SDS011;33088;51.982;5.872;2022-08-19T06:28:38;20.90;;;18.58;;
47349;SDS011;33088;51.982;5.872;2022-08-19T06:31:07;21.50;;;19.17;;
47349;SDS011;33088;51.982;5.872;2022-08-19T06:33:34;21.02;;;18.75;;
47349;SDS011;33088;51.982;5.872;2022-08-19T06:36:00;26.17;;;19.67;;
47349;SDS011;33088;51.982;5.872;2022-08-19T06:38:25;25.63;;;21.52;;
47349;SDS011;33088;51.982;5.872;2022-08-19T06:40:59;23.67;;;20.58;;
47349;SDS011;33088;51.982;5.872;2022-08-19T06:43:26;22.02;;;19.10;;
47349;SDS011;33088;51.982;5.872;2022-08-19T06:45:51;23.17;;;18.90;;
47349;SDS011;33088;51.982;5.872;2022-08-19T06:48:17;21.65;;;19.17;;
47349;SDS011;33088;51.982;5.872;2022-08-19T06:50:43;24.17;;;20.13;;
47349;SDS011;33088;51.982;5.872;2022-08-19T06:53:09;32.10;;;23.00;;
47349;SDS011;33088;51.982;5.872;2022-08-19T06:55:34;40.28;;;26.63;;
47349;SDS011;33088;51.982;5.872;2022-08-19T06:58:04;38.55;;;29.25;;
47349;SDS011;33088;51.982;5.872;2022-08-19T07:00:30;50.15;;;34.58;;
47349;SDS011;33088;51.982;5.872;2022-08-19T07:02:55;59.28;;;36.00;;
47349;SDS011;33088;51.982;5.872;2022-08-19T07:05:22;74.93;;;42.70;;
47349;SDS011;33088;51.982;5.872;2022-08-19T07:07:48;77.38;;;42.28;;
47349;SDS011;33088;51.982;5.872;2022-08-19T07:10:13;76.10;;;43.25;;
47349;SDS011;33088;51.982;5.872;2022-08-19T07:12:39;78.00;;;44.70;;
47349;SDS011;33088;51.982;5.872;2022-08-19T07:15:05;79.63;;;45.42;;
47349;SDS011;33088;51.982;5.872;2022-08-19T07:17:33;96.82;;;49.78;;
47349;SDS011;33088;51.982;5.872;2022-08-19T07:20:02;71.00;;;44.13;;
47349;SDS011;33088;51.982;5.872;2022-08-19T07:22:29;75.65;;;45.85;;
47349;SDS011;33088;51.982;5.872;2022-08-19T07:24:55;90.70;;;50.10;;
47349;SDS011;33088;51.982;5.872;2022-08-19T07:27:21;76.55;;;45.47;;
47349;SDS011;33088;51.982;5.872;2022-08-19T07:29:46;86.18;;;51.47;;
47349;SDS011;33088;51.982;5.872;2022-08-19T07:32:12;76.55;;;46.10;;
47349;SDS011;33088;51.982;5.872;2022-08-19T07:34:38;71.28;;;47.25;;
47349;SDS011;33088;51.982;5.872;2022-08-19T07:37:04;74.30;;;46.50;;
47349;SDS011;33088;51.982;5.872;2022-08-19T07:39:32;77.07;;;48.33;;
47349;SDS011;33088;51.982;5.872;2022-08-19T07:42:01;77.72;;;49.00;;
47349;SDS011;33088;51.982;5.872;2022-08-19T07:44:31;82.07;;;49.15;;
47349;SDS011;33088;51.982;5.872;2022-08-19T07:46:59;86.80;;;50.65;;
47349;SDS011;33088;51.982;5.872;2022-08-19T07:49:26;90.13;;;53.88;;
47349;SDS011;33088;51.982;5.872;2022-08-19T07:51:53;79.47;;;49.67;;
47349;SDS011;33088;51.982;5.872;2022-08-19T07:54:26;74.80;;;49.67;;
47349;SDS011;33088;51.982;5.872;2022-08-19T07:56:53;79.57;;;51.67;;
47349;SDS011;33088;51.982;5.872;2022-08-19T07:59:19;74.53;;;51.35;;
47349;SDS011;33088;51.982;5.872;2022-08-19T08:01:46;72.75;;;49.85;;
47349;SDS011;33088;51.982;5.872;2022-08-19T08:04:12;76.55;;;53.90;;
47349;SDS011;33088;51.982;5.872;2022-08-19T08:06:57;74.60;;;52.17;;
47349;SDS011;33088;51.982;5.872;2022-08-19T08:09:42;76.72;;;52.10;;
47349;SDS011;33088;51.982;5.872;2022-08-19T08:12:10;71.43;;;51.70;;
47349;SDS011;33088;51.982;5.872;2022-08-19T08:14:47;68.25;;;49.35;;
47349;SDS011;33088;51.982;5.872;2022-08-19T08:17:15;76.88;;;53.08;;
47349;SDS011;33088;51.982;5.872;2022-08-19T08:19:43;67.55;;;49.83;;
47349;SDS011;33088;51.982;5.872;2022-08-19T08:22:10;63.00;;;48.78;;
47349;SDS011;33088;51.982;5.872;2022-08-19T08:24:56;70.00;;;49.53;;
47349;SDS011;33088;51.982;5.872;2022-08-19T08:27:23;62.17;;;45.55;;
47349;SDS011;33088;51.982;5.872;2022-08-19T08:29:49;59.30;;;45.60;;
47349;SDS011;33088;51.982;5.872;2022-08-19T08:32:15;66.95;;;48.13;;
47349;SDS011;33088;51.982;5.872;2022-08-19T08:34:41;61.72;;;45.33;;
47349;SDS011;33088;51.982;5.872;2022-08-19T08:37:07;59.75;;;44.25;;
47349;SDS011;33088;51.982;5.872;2022-08-19T08:39:33;53.75;;;39.08;;
47349;SDS011;33088;51.982;5.872;2022-08-19T08:42:07;51.53;;;34.20;;
47349;SDS011;33088;51.982;5.872;2022-08-19T08:44:58;63.38;;;42.90;;
47349;SDS011;33088;51.982;5.872;2022-08-19T08:47:36;57.35;;;41.17;;
47349;SDS011;33088;51.982;5.872;2022-08-19T08:50:06;66.30;;;44.15;;
47349;SDS011;33088;51.982;5.872;2022-08-19T08:52:39;52.67;;;39.50;;
47349;SDS011;33088;51.982;5.872;2022-08-19T08:57:39;59.25;;;40.85;;
47349;SDS011;33088;51.982;5.872;2022-08-19T09:00:18;58.90;;;38.58;;
47349;SDS011;33088;51.982;5.872;2022-08-19T09:02:50;58.50;;;39.25;;
47349;SDS011;33088;51.982;5.872;2022-08-19T09:05:15;56.05;;;39.03;;
47349;SDS011;33088;51.982;5.872;2022-08-19T09:07:57;49.67;;;34.28;;
47349;SDS011;33088;51.982;5.872;2022-08-19T09:10:39;51.97;;;36.90;;
47349;SDS011;33088;51.982;5.872;2022-08-19T09:16:10;53.53;;;34.63;;
47349;SDS011;33088;51.982;5.872;2022-08-19T09:18:39;47.78;;;33.72;;
47349;SDS011;33088;51.982;5.872;2022-08-19T09:21:04;48.38;;;35.17;;
47349;SDS011;33088;51.982;5.872;2022-08-19T09:23:31;44.90;;;32.33;;
47349;SDS011;33088;51.982;5.872;2022-08-19T09:25:56;50.58;;;34.15;;
47349;SDS011;33088;51.982;5.872;2022-08-19T09:28:22;48.13;;;32.80;;
47349;SDS011;33088;51.982;5.872;2022-08-19T09:30:48;44.28;;;32.67;;
47349;SDS011;33088;51.982;5.872;2022-08-19T09:33:13;43.58;;;31.90;;
47349;SDS011;33088;51.982;5.872;2022-08-19T09:35:41;43.63;;;31.50;;
47349;SDS011;33088;51.982;5.872;2022-08-19T09:38:06;49.35;;;32.33;;
47349;SDS011;33088;51.982;5.872;2022-08-19T09:40:32;42.83;;;31.88;;
47349;SDS011;33088;51.982;5.872;2022-08-19T09:42:58;42.90;;;32.15;;
47349;SDS011;33088;51.982;5.872;2022-08-19T09:45:27;42.25;;;29.92;;
47349;SDS011;33088;51.982;5.872;2022-08-19T09:47:53;36.45;;;28.20;;
47349;SDS011;33088;51.982;5.872;2022-08-19T09:50:19;38.50;;;28.38;;
47349;SDS011;33088;51.982;5.872;2022-08-19T09:52:46;41.92;;;29.52;;
47349;SDS011;33088;51.982;5.872;2022-08-19T09:55:12;34.92;;;25.42;;
47349;SDS011;33088;51.982;5.872;2022-08-19T09:57:38;40.80;;;28.35;;
47349;SDS011;33088;51.982;5.872;2022-08-19T10:00:05;39.35;;;27.05;;
47349;SDS011;33088;51.982;5.872;2022-08-19T10:02:34;42.80;;;28.08;;
47349;SDS011;33088;51.982;5.872;2022-08-19T10:05:00;39.90;;;27.67;;
47349;SDS011;33088;51.982;5.872;2022-08-19T10:07:45;35.67;;;26.00;;
47349;SDS011;33088;51.982;5.872;2022-08-19T10:10:11;40.17;;;27.42;;
47349;SDS011;33088;51.982;5.872;2022-08-19T10:12:37;39.38;;;26.80;;
47349;SDS011;33088;51.982;5.872;2022-08-19T10:15:04;35.67;;;25.95;;
47349;SDS011;33088;51.982;5.872;2022-08-19T10:17:31;36.20;;;25.05;;
47349;SDS011;33088;51.982;5.872;2022-08-19T10:19:58;40.53;;;27.70;;
47349;SDS011;33088;51.982;5.872;2022-08-19T10:22:24;36.08;;;26.10;;
47349;SDS011;33088;51.982;5.872;2022-08-19T10:24:50;33.50;;;24.92;;
47349;SDS011;33088;51.982;5.872;2022-08-19T10:27:16;37.28;;;23.98;;
47349;SDS011;33088;51.982;5.872;2022-08-19T10:29:42;37.72;;;24.95;;
47349;SDS011;33088;51.982;5.872;2022-08-19T10:32:08;35.40;;;25.35;;
47349;SDS011;33088;51.982;5.872;2022-08-19T10:34:38;39.92;;;25.70;;
47349;SDS011;33088;51.982;5.872;2022-08-19T10:37:04;37.35;;;24.52;;
47349;SDS011;33088;51.982;5.872;2022-08-19T10:39:32;33.58;;;24.08;;
47349;SDS011;33088;51.982;5.872;2022-08-19T10:41:59;40.33;;;24.90;;
47349;SDS011;33088;51.982;5.872;2022-08-19T10:44:31;40.55;;;25.33;;
47349;SDS011;33088;51.982;5.872;2022-08-19T10:46:57;33.63;;;24.17;;
47349;SDS011;33088;51.982;5.872;2022-08-19T10:49:23;38.15;;;23.48;;
47349;SDS011;33088;51.982;5.872;2022-08-19T10:51:49;36.80;;;24.00;;
47349;SDS011;33088;51.982;5.872;2022-08-19T10:54:34;32.85;;;23.90;;
47349;SDS011;33088;51.982;5.872;2022-08-19T10:57:18;36.83;;;22.67;;
47349;SDS011;33088;51.982;5.872;2022-08-19T10:59:43;39.80;;;23.80;;
47349;SDS011;33088;51.982;5.872;2022-08-19T11:02:10;34.55;;;24.10;;
47349;SDS011;33088;51.982;5.872;2022-08-19T11:04:37;32.60;;;23.75;;
47349;SDS011;33088;51.982;5.872;2022-08-19T11:07:04;37.85;;;22.67;;
47349;SDS011;33088;51.982;5.872;2022-08-19T11:09:30;33.45;;;23.90;;
47349;SDS011;33088;51.982;5.872;2022-08-19T11:12:01;34.75;;;23.40;;
47349;SDS011;33088;51.982;5.872;2022-08-19T11:14:28;33.03;;;23.17;;
47349;SDS011;33088;51.982;5.872;2022-08-19T11:16:57;32.92;;;23.00;;
47349;SDS011;33088;51.982;5.872;2022-08-19T11:19:23;29.38;;;21.02;;
47349;SDS011;33088;51.982;5.872;2022-08-19T11:21:50;29.80;;;21.38;;
47349;SDS011;33088;51.982;5.872;2022-08-19T11:24:18;36.22;;;22.00;;
47349;SDS011;33088;51.982;5.872;2022-08-19T11:26:46;27.92;;;19.83;;
47349;SDS011;33088;51.982;5.872;2022-08-19T11:29:16;25.48;;;16.45;;
47349;SDS011;33088;51.982;5.872;2022-08-19T11:31:45;24.10;;;18.90;;
47349;SDS011;33088;51.982;5.872;2022-08-19T11:34:13;30.70;;;20.08;;
47349;SDS011;33088;51.982;5.872;2022-08-19T11:36:42;26.10;;;19.17;;
47349;SDS011;33088;51.982;5.872;2022-08-19T11:39:11;27.65;;;18.83;;
47349;SDS011;33088;51.982;5.872;2022-08-19T11:41:38;25.80;;;18.83;;
47349;SDS011;33088;51.982;5.872;2022-08-19T11:44:05;25.08;;;18.15;;
47349;SDS011;33088;51.982;5.872;2022-08-19T11:46:31;22.98;;;15.88;;
47349;SDS011;33088;51.982;5.872;2022-08-19T11:48:57;20.63;;;16.35;;
47349;SDS011;33088;51.982;5.872;2022-08-19T11:51:25;23.83;;;18.63;;
47349;SDS011;33088;51.982;5.872;2022-08-19T11:53:52;23.40;;;17.90;;
47349;SDS011;33088;51.982;5.872;2022-08-19T11:56:19;22.98;;;17.58;;
47349;SDS011;33088;51.982;5.872;2022-08-19T11:58:46;27.02;;;17.45;;
47349;SDS011;33088;51.982;5.872;2022-08-19T12:01:12;21.75;;;17.08;;
47349;SDS011;33088;51.982;5.872;2022-08-19T12:03:46;19.90;;;15.53;;
47349;SDS011;33088;51.982;5.872;2022-08-19T12:06:24;23.20;;;18.10;;
47349;SDS011;33088;51.982;5.872;2022-08-19T12:08:53;26.63;;;20.48;;
47349;SDS011;33088;51.982;5.872;2022-08-19T12:11:20;21.02;;;15.95;;
47349;SDS011;33088;51.982;5.872;2022-08-19T12:13:46;23.35;;;17.80;;
47349;SDS011;33088;51.982;5.872;2022-08-19T12:16:20;26.63;;;20.58;;
47349;SDS011;33088;51.982;5.872;2022-08-19T12:18:48;23.80;;;18.75;;
47349;SDS011;33088;51.982;5.872;2022-08-19T12:21:17;26.30;;;19.80;;
47349;SDS011;33088;51.982;5.872;2022-08-19T12:23:47;22.17;;;18.95;;
47349;SDS011;33088;51.982;5.872;2022-08-19T12:26:18;27.35;;;20.75;;
47349;SDS011;33088;51.982;5.872;2022-08-19T12:28:44;22.92;;;19.67;;
47349;SDS011;33088;51.982;5.872;2022-08-19T12:31:10;28.85;;;22.88;;
47349;SDS011;33088;51.982;5.872;2022-08-19T12:33:39;26.13;;;20.48;;
47349;SDS011;33088;51.982;5.872;2022-08-19T12:36:07;27.05;;;19.55;;
47349;SDS011;33088;51.982;5.872;2022-08-19T12:38:36;23.77;;;19.58;;
47349;SDS011;33088;51.982;5.872;2022-08-19T12:41:03;25.92;;;20.95;;
47349;SDS011;33088;51.982;5.872;2022-08-19T12:43:31;25.58;;;22.00;;
47349;SDS011;33088;51.982;5.872;2022-08-19T12:46:01;32.05;;;22.77;;
47349;SDS011;33088;51.982;5.872;2022-08-19T12:48:29;30.25;;;19.88;;
47349;SDS011;33088;51.982;5.872;2022-08-19T12:50:55;24.45;;;20.77;;
47349;SDS011;33088;51.982;5.872;2022-08-19T12:53:21;29.35;;;20.58;;
47349;SDS011;33088;51.982;5.872;2022-08-19T12:55:47;26.55;;;23.15;;
47349;SDS011;33088;51.982;5.872;2022-08-19T12:58:20;28.80;;;20.58;;
47349;SDS011;33088;51.982;5.872;2022-08-19T13:00:49;23.20;;;20.40;;
47349;SDS011;33088;51.982;5.872;2022-08-19T13:03:15;34.33;;;24.92;;
47349;SDS011;33088;51.982;5.872;2022-08-19T13:05:40;24.83;;;20.55;;
47349;SDS011;33088;51.982;5.872;2022-08-19T13:08:06;21.50;;;19.27;;
47349;SDS011;33088;51.982;5.872;2022-08-19T13:10:33;29.92;;;22.30;;
47349;SDS011;33088;51.982;5.872;2022-08-19T13:13:01;33.58;;;26.65;;
47349;SDS011;33088;51.982;5.872;2022-08-19T13:15:33;26.48;;;23.55;;
47349;SDS011;33088;51.982;5.872;2022-08-19T13:18:00;25.98;;;21.70;;
47349;SDS011;33088;51.982;5.872;2022-08-19T13:20:26;25.83;;;21.42;;
47349;SDS011;33088;51.982;5.872;2022-08-19T13:22:53;23.20;;;19.58;;
47349;SDS011;33088;51.982;5.872;2022-08-19T13:25:19;22.00;;;19.63;;
47349;SDS011;33088;51.982;5.872;2022-08-19T13:27:46;22.58;;;20.23;;
47349;SDS011;33088;51.982;5.872;2022-08-19T13:30:17;27.55;;;19.23;;
47349;SDS011;33088;51.982;5.872;2022-08-19T13:33:03;25.63;;;21.48;;
47349;SDS011;33088;51.982;5.872;2022-08-19T13:35:35;21.67;;;18.27;;
47349;SDS011;33088;51.982;5.872;2022-08-19T13:38:02;21.80;;;17.33;;
47349;SDS011;33088;51.982;5.872;2022-08-19T13:40:30;25.15;;;17.25;;
47349;SDS011;33088;51.982;5.872;2022-08-19T13:42:59;22.52;;;17.88;;
47349;SDS011;33088;51.982;5.872;2022-08-19T13:45:26;21.98;;;19.33;;
47349;SDS011;33088;51.982;5.872;2022-08-19T13:47:54;27.05;;;19.20;;
47349;SDS011;33088;51.982;5.872;2022-08-19T13:50:22;27.75;;;17.00;;
47349;SDS011;33088;51.982;5.872;2022-08-19T13:52:51;24.15;;;18.33;;
47349;SDS011;33088;51.982;5.872;2022-08-19T13:55:18;24.98;;;20.00;;
47349;SDS011;33088;51.982;5.872;2022-08-19T13:57:44;22.67;;;17.25;;
47349;SDS011;33088;51.982;5.872;2022-08-19T14:00:14;26.38;;;19.83;;
47349;SDS011;33088;51.982;5.872;2022-08-19T14:02:45;27.60;;;20.15;;
47349;SDS011;33088;51.982;5.872;2022-08-19T14:05:13;24.98;;;20.38;;
47349;SDS011;33088;51.982;5.872;2022-08-19T14:07:40;35.65;;;24.20;;
47349;SDS011;33088;51.982;5.872;2022-08-19T14:10:07;23.35;;;20.80;;
47349;SDS011;33088;51.982;5.872;2022-08-19T14:12:35;23.52;;;21.08;;
47349;SDS011;33088;51.982;5.872;2022-08-19T14:15:01;26.98;;;20.70;;
47349;SDS011;33088;51.982;5.872;2022-08-19T14:17:28;31.17;;;22.83;;
47349;SDS011;33088;51.982;5.872;2022-08-19T14:19:57;28.48;;;22.20;;
47349;SDS011;33088;51.982;5.872;2022-08-19T14:22:32;27.08;;;21.58;;
47349;SDS011;33088;51.982;5.872;2022-08-19T14:24:58;26.17;;;22.42;;
47349;SDS011;33088;51.982;5.872;2022-08-19T14:27:24;23.08;;;18.42;;
47349;SDS011;33088;51.982;5.872;2022-08-19T14:29:50;24.95;;;18.88;;
47349;SDS011;33088;51.982;5.872;2022-08-19T14:32:17;29.15;;;20.80;;
47349;SDS011;33088;51.982;5.872;2022-08-19T14:34:46;27.45;;;22.15;;
47349;SDS011;33088;51.982;5.872;2022-08-19T14:37:12;27.65;;;20.75;;